createdAt,value
2023-05-09T00:02:50.194Z,8.68
2023-05-09T00:07:53.035Z,6.53
2023-05-09T00:12:58.484Z,6.95
2023-05-09T00:18:01.340Z,7.07
2023-05-09T00:23:04.532Z,6.05
2023-05-09T00:28:09.094Z,5.97
2023-05-09T00:33:11.929Z,7.35
2023-05-09T00:38:14.880Z,7.10
2023-05-09T00:43:19.114Z,7.03
2023-05-09T00:48:22.694Z,9.50
2023-05-09T00:53:25.770Z,6.57
2023-05-09T00:58:30.933Z,6.63
2023-05-09T01:03:34.794Z,6.63
2023-05-09T01:08:47.918Z,7.57
2023-05-09T01:14:02.083Z,5.57
2023-05-09T01:19:17.206Z,5.55
2023-05-09T01:24:50.746Z,5.82
2023-05-09T01:29:58.682Z,5.38
2023-05-09T01:35:04.449Z,13.85
2023-05-09T01:40:11.237Z,5.78
2023-05-09T01:45:17.790Z,7.32
2023-05-09T01:50:22.597Z,5.13
2023-05-09T01:55:28.169Z,4.88
2023-05-09T02:00:33.147Z,8.57
2023-05-09T02:05:38.284Z,7.00
2023-05-09T02:10:41.286Z,7.20
2023-05-09T02:15:46.245Z,5.47
2023-05-09T02:20:49.327Z,5.30
2023-05-09T02:25:54.178Z,6.35
2023-05-09T02:31:03.416Z,5.45
2023-05-09T02:36:08.430Z,7.78
2023-05-09T02:41:13.983Z,6.95
2023-05-09T02:46:18.159Z,8.02
2023-05-09T02:51:20.932Z,7.30
2023-05-09T02:56:23.715Z,5.80
2023-05-09T03:01:27.918Z,5.85
2023-05-09T03:06:30.731Z,5.57
2023-05-09T03:11:33.796Z,8.27
2023-05-09T03:16:38.296Z,8.63
2023-05-09T03:21:45.854Z,5.25
2023-05-09T03:26:49.220Z,5.40
2023-05-09T03:31:53.509Z,5.20
2023-05-09T03:36:56.401Z,5.10
2023-05-09T03:41:59.301Z,5.93
2023-05-09T03:47:04.391Z,4.22
2023-05-09T03:52:13.287Z,7.93
2023-05-09T03:57:16.652Z,7.50
2023-05-09T04:02:22.878Z,5.15
2023-05-09T04:07:26.474Z,5.45
2023-05-09T04:12:29.527Z,3.88
2023-05-09T04:17:34.972Z,8.73
2023-05-09T04:22:38.021Z,3.70
2023-05-09T04:27:40.855Z,4.75
2023-05-09T04:32:46.000Z,4.93
2023-05-09T04:37:49.292Z,4.60
2023-05-09T04:42:53.390Z,4.53
2023-05-09T04:48:02.874Z,5.45
2023-05-09T04:53:05.914Z,4.72
2023-05-09T04:58:10.174Z,4.00
2023-05-09T05:03:14.508Z,4.57
2023-05-09T05:08:17.319Z,5.63
2023-05-09T05:13:21.459Z,5.65
2023-05-09T05:18:29.651Z,8.98
2023-05-09T05:23:32.420Z,7.28
2023-05-09T05:28:35.156Z,7.57
2023-05-09T05:33:40.811Z,6.30
2023-05-09T05:38:43.606Z,5.78
2023-05-09T05:43:46.407Z,5.43
2023-05-09T05:48:52.680Z,9.00
2023-05-09T05:53:55.728Z,7.20
2023-05-09T05:58:59.631Z,7.00
2023-05-09T06:04:03.939Z,8.30
2023-05-09T06:09:08.694Z,5.78
2023-05-09T06:14:11.652Z,7.38
2023-05-09T06:19:15.928Z,6.13
2023-05-09T06:24:27.952Z,10.38
2023-05-09T06:29:38.140Z,6.68
2023-05-09T06:34:42.878Z,8.93
2023-05-09T06:39:45.556Z,6.80
2023-05-09T06:44:48.233Z,9.25
2023-05-09T06:49:52.268Z,8.52
2023-05-09T06:54:54.936Z,9.35
2023-05-09T06:59:57.900Z,12.27
2023-05-09T07:05:01.987Z,9.43
2023-05-09T07:10:11.131Z,10.20
2023-05-09T07:15:22.757Z,9.35
2023-05-09T07:20:33.265Z,9.57
2023-05-09T07:25:36.230Z,11.60
2023-05-09T07:30:39.146Z,9.55
2023-05-09T07:35:43.429Z,9.75
2023-05-09T07:40:46.207Z,10.10
2023-05-09T07:45:49.055Z,9.85
2023-05-09T07:50:53.312Z,9.95
2023-05-09T07:55:56.064Z,10.68
2023-05-09T08:00:58.991Z,11.82
2023-05-09T08:06:03.387Z,9.73
2023-05-09T08:11:06.599Z,9.57
2023-05-09T08:16:09.374Z,11.43
2023-05-09T08:21:13.621Z,11.73
2023-05-09T08:26:16.370Z,9.60
2023-05-09T08:31:19.217Z,16.13
2023-05-09T08:36:23.510Z,14.43
2023-05-09T08:41:28.008Z,13.65
2023-05-09T08:46:37.680Z,15.50
2023-05-09T08:51:42.118Z,18.05
2023-05-09T08:56:44.918Z,14.43
2023-05-09T09:01:48.576Z,14.70
2023-05-09T09:06:54.873Z,26.20
2023-05-09T09:11:59.003Z,14.25
2023-05-09T09:17:02.532Z,15.10
2023-05-09T09:22:07.553Z,15.82
2023-05-09T09:27:10.371Z,17.38
2023-05-09T09:32:13.186Z,13.98
2023-05-09T09:37:24.864Z,15.02
2023-05-09T09:42:27.688Z,21.50
2023-05-09T09:47:33.783Z,14.07
2023-05-09T09:52:37.959Z,13.60
2023-05-09T09:57:43.948Z,12.15
2023-05-09T10:02:51.282Z,12.98
2023-05-09T10:07:59.902Z,11.45
2023-05-09T10:13:04.148Z,13.15
2023-05-09T10:18:09.076Z,13.70
2023-05-09T10:23:17.196Z,11.73
2023-05-09T10:28:25.156Z,17.05
2023-05-09T10:33:32.615Z,13.20
2023-05-09T10:38:37.265Z,12.45
2023-05-09T10:43:40.491Z,12.23
2023-05-09T10:48:44.780Z,12.80
2023-05-09T10:53:50.097Z,12.48
2023-05-09T10:58:53.231Z,11.40
2023-05-09T11:03:57.455Z,11.05
2023-05-09T11:09:29.241Z,13.35
2023-05-09T11:14:33.311Z,11.40
2023-05-09T11:19:55.120Z,14.45
2023-05-09T11:25:05.661Z,9.90
2023-05-09T11:30:10.002Z,10.38
2023-05-09T11:35:15.338Z,11.15
2023-05-09T11:40:21.683Z,11.80
2023-05-09T11:45:27.086Z,12.00
2023-05-09T11:50:30.394Z,10.13
2023-05-09T11:55:39.020Z,11.30
2023-05-09T12:00:46.031Z,10.25
2023-05-09T12:05:49.315Z,9.20
2023-05-09T12:10:53.612Z,9.07
2023-05-09T12:16:01.514Z,8.75
2023-05-09T12:21:07.087Z,7.88
2023-05-09T12:26:11.440Z,6.70
2023-05-09T12:31:14.536Z,7.57
2023-05-09T12:36:17.575Z,6.45
2023-05-09T12:46:33.523Z,7.22
2023-05-09T12:51:37.394Z,7.32
2023-05-09T12:56:41.655Z,7.55
2023-05-09T13:01:44.462Z,7.53
2023-05-09T13:06:51.814Z,7.10
2023-05-09T13:11:56.135Z,7.35
2023-05-09T13:16:58.977Z,7.40
2023-05-09T13:22:01.983Z,9.15
2023-05-09T13:27:06.176Z,7.47
2023-05-09T13:32:08.970Z,7.38
2023-05-09T13:37:11.905Z,9.35
2023-05-09T13:42:17.800Z,7.85
2023-05-09T13:47:21.990Z,7.15
2023-05-09T13:52:24.929Z,5.93
2023-05-09T13:57:29.202Z,7.65
2023-05-09T14:02:32.029Z,7.15
2023-05-09T14:07:34.883Z,6.85
2023-05-09T14:12:40.301Z,5.75
2023-05-09T14:17:43.518Z,6.80
2023-05-09T14:22:46.473Z,7.18
2023-05-09T14:27:51.429Z,6.35
2023-05-09T14:32:54.267Z,6.93
2023-05-09T14:37:57.072Z,6.32
2023-05-09T14:43:02.634Z,7.07
2023-05-09T14:48:05.689Z,7.18
2023-05-09T14:53:08.569Z,8.55
2023-05-09T14:58:13.464Z,6.32
2023-05-09T15:03:17.160Z,6.45
2023-05-09T15:08:20.020Z,8.55
2023-05-09T15:13:24.271Z,8.30
2023-05-09T15:18:28.659Z,7.95
2023-05-09T15:23:31.616Z,10.77
2023-05-09T15:28:36.109Z,9.00
2023-05-09T15:33:38.982Z,9.75
2023-05-09T15:38:41.840Z,9.35
2023-05-09T15:43:46.003Z,7.45
2023-05-09T15:48:48.785Z,7.15
2023-05-09T15:53:51.602Z,11.25
2023-05-09T15:58:55.729Z,6.85
2023-05-09T16:03:59.027Z,7.22
2023-05-09T16:09:04.360Z,7.80
2023-05-09T16:14:11.345Z,7.40
2023-05-09T16:19:14.592Z,6.55
2023-05-09T16:24:17.482Z,11.80
2023-05-09T16:29:22.366Z,11.15
2023-05-09T16:34:25.318Z,7.15
2023-05-09T16:39:28.934Z,7.75
2023-05-09T16:44:33.074Z,6.72
2023-05-09T16:49:35.886Z,6.85
2023-05-09T16:54:38.672Z,11.32
2023-05-09T16:59:42.867Z,7.57
2023-05-09T17:04:45.763Z,7.90
2023-05-09T17:09:49.659Z,8.02
2023-05-09T17:14:54.180Z,9.18
2023-05-09T17:19:57.669Z,7.97
2023-05-09T17:25:00.544Z,10.25
2023-05-09T17:30:05.550Z,8.43
2023-05-09T17:35:09.254Z,8.93
2023-05-09T17:40:12.588Z,11.45
2023-05-09T17:45:16.884Z,8.52
2023-05-09T17:50:20.767Z,8.85
2023-05-09T17:55:23.590Z,10.48
2023-05-09T18:00:27.883Z,8.80
2023-05-09T18:05:30.842Z,11.15
2023-05-09T18:10:34.148Z,10.63
2023-05-09T18:15:38.792Z,11.32
2023-05-09T18:20:41.583Z,11.48
2023-05-09T18:25:44.418Z,11.77
2023-05-09T18:30:48.978Z,19.92
2023-05-09T18:35:51.838Z,11.45
2023-05-09T18:40:54.630Z,11.77
2023-05-09T18:45:58.766Z,13.65
2023-05-09T18:51:01.608Z,13.07
2023-05-09T18:56:04.886Z,15.70
2023-05-09T19:01:11.624Z,15.65
2023-05-09T19:06:16.536Z,13.82
2023-05-09T19:11:19.441Z,12.65
2023-05-09T19:16:26.408Z,12.82
2023-05-09T19:21:29.672Z,10.57
2023-05-09T19:26:32.405Z,10.43
2023-05-09T19:31:37.245Z,10.18
2023-05-09T19:36:40.092Z,10.18
2023-05-09T19:41:42.841Z,10.10
2023-05-09T19:46:47.414Z,7.90
2023-05-09T19:51:50.300Z,11.45
2023-05-09T19:56:53.072Z,9.35
2023-05-09T20:01:57.330Z,9.77
2023-05-09T20:07:00.244Z,10.65
2023-05-09T20:12:03.822Z,9.98
2023-05-09T20:17:07.990Z,9.95
2023-05-09T20:22:10.781Z,9.18
2023-05-09T20:27:13.770Z,9.45
2023-05-09T20:32:17.988Z,9.55
2023-05-09T20:37:20.774Z,8.15
2023-05-09T20:42:24.293Z,9.65
2023-05-09T20:47:28.669Z,8.40
2023-05-09T20:52:31.441Z,7.35
2023-05-09T20:57:34.201Z,8.77
2023-05-09T21:02:38.357Z,8.07
2023-05-09T21:07:41.107Z,8.88
2023-05-09T21:12:43.912Z,8.05
2023-05-09T21:17:48.115Z,9.05
2023-05-09T21:22:51.128Z,8.70
2023-05-09T21:27:53.989Z,7.75
2023-05-09T21:32:58.150Z,9.15
2023-05-09T21:38:00.851Z,9.13
2023-05-09T21:43:03.783Z,8.05
2023-05-09T21:48:08.077Z,8.10
2023-05-09T21:53:10.818Z,8.13
2023-05-09T21:58:13.554Z,7.93
2023-05-09T22:03:17.710Z,7.75
2023-05-09T22:08:20.533Z,7.25
2023-05-09T22:13:23.342Z,8.20
2023-05-09T22:18:27.752Z,7.78
2023-05-09T22:23:30.495Z,9.00
2023-05-09T22:28:33.168Z,6.93
2023-05-09T22:33:37.226Z,6.13
2023-05-09T22:38:39.904Z,6.95
2023-05-09T22:43:42.595Z,6.20
2023-05-09T22:48:46.692Z,6.97
2023-05-09T22:53:49.573Z,7.00
2023-05-09T22:58:52.771Z,9.65
2023-05-09T23:03:56.819Z,7.05
2023-05-09T23:08:59.562Z,8.45
2023-05-09T23:14:02.558Z,9.30
2023-05-09T23:19:06.611Z,7.93
2023-05-09T23:24:09.591Z,7.43
2023-05-09T23:29:12.309Z,8.52
2023-05-09T23:34:17.096Z,10.38
2023-05-09T23:39:19.859Z,12.07
2023-05-09T23:44:22.584Z,11.30
2023-05-09T23:49:27.204Z,11.05
2023-05-09T23:54:29.964Z,13.55
2023-05-09T23:59:32.930Z,12.30
